createdAt,value
2023-05-01T00:01:06.064Z,13.94
2023-05-01T00:03:34.023Z,13.79
2023-05-01T00:06:03.199Z,14.16
2023-05-01T00:08:30.863Z,14.30
2023-05-01T00:11:03.288Z,14.43
2023-05-01T00:13:31.284Z,14.32
2023-05-01T00:15:59.030Z,14.14
2023-05-01T00:18:26.466Z,14.11
2023-05-01T00:20:53.829Z,14.14
2023-05-01T00:23:21.564Z,14.18
2023-05-01T00:25:49.547Z,14.13
2023-05-01T00:28:18.954Z,14.10
2023-05-01T00:30:47.129Z,14.06
2023-05-01T00:33:15.432Z,14.12
2023-05-01T00:35:46.479Z,14.27
2023-05-01T00:38:14.218Z,14.28
2023-05-01T00:40:45.223Z,14.05
2023-05-01T00:43:12.929Z,13.97
2023-05-01T00:45:43.867Z,14.06
2023-05-01T00:48:11.529Z,13.91
2023-05-01T00:50:39.276Z,13.93
2023-05-01T00:53:07.259Z,13.86
2023-05-01T00:55:35.835Z,13.76
2023-05-01T00:58:03.818Z,13.68
2023-05-01T01:00:31.473Z,13.82
2023-05-01T01:02:59.656Z,13.52
2023-05-01T01:05:28.398Z,13.59
2023-05-01T01:08:03.156Z,13.57
2023-05-01T01:10:30.589Z,13.17
2023-05-01T01:13:01.367Z,13.31
2023-05-01T01:15:44.844Z,13.24
2023-05-01T01:18:18.063Z,13.27
2023-05-01T01:21:07.291Z,13.15
2023-05-01T01:23:53.566Z,13.26
2023-05-01T01:26:50.360Z,13.25
2023-05-01T01:29:41.697Z,12.91
2023-05-01T01:32:11.267Z,12.99
2023-05-01T01:34:48.450Z,12.93
2023-05-01T01:37:28.408Z,12.35
2023-05-01T01:40:16.410Z,12.46
2023-05-01T01:42:46.718Z,12.34
2023-05-01T01:45:23.775Z,12.44
2023-05-01T01:47:51.736Z,12.26
2023-05-01T01:50:38.653Z,12.63
2023-05-01T01:53:07.378Z,12.80
2023-05-01T01:55:36.410Z,12.82
2023-05-01T01:58:04.538Z,12.70
2023-05-01T02:00:34.426Z,13.05
2023-05-01T02:03:02.654Z,13.09
2023-05-01T02:05:31.302Z,13.36
2023-05-01T02:07:59.286Z,13.36
2023-05-01T02:10:27.863Z,13.41
2023-05-01T02:12:56.939Z,13.27
2023-05-01T02:15:26.140Z,13.52
2023-05-01T02:17:53.993Z,13.55
2023-05-01T02:20:22.733Z,13.67
2023-05-01T02:22:53.250Z,13.77
2023-05-01T02:25:21.241Z,13.45
2023-05-01T02:27:53.654Z,13.68
2023-05-01T02:30:21.532Z,13.13
2023-05-01T02:32:48.943Z,13.33
2023-05-01T02:35:17.723Z,13.17
2023-05-01T02:37:45.812Z,13.38
2023-05-01T02:40:16.972Z,13.28
2023-05-01T02:42:45.318Z,13.45
2023-05-01T02:45:21.682Z,13.35
2023-05-01T02:47:52.010Z,13.17
2023-05-01T02:50:19.870Z,13.32
2023-05-01T02:52:47.561Z,13.35
2023-05-01T02:55:16.622Z,12.93
2023-05-01T02:57:44.025Z,13.03
2023-05-01T03:00:14.168Z,13.07
2023-05-01T03:02:42.375Z,13.09
2023-05-01T03:05:09.979Z,13.28
2023-05-01T03:07:37.433Z,13.43
2023-05-01T03:10:06.316Z,13.70
2023-05-01T03:12:33.991Z,13.82
2023-05-01T03:15:01.342Z,13.61
2023-05-01T03:17:29.670Z,13.71
2023-05-01T03:19:57.338Z,13.51
2023-05-01T03:22:24.804Z,13.48
2023-05-01T03:24:52.442Z,13.53
2023-05-01T03:27:19.836Z,13.50
2023-05-01T03:29:47.181Z,13.31
2023-05-01T03:32:16.504Z,13.45
2023-05-01T03:34:45.309Z,13.85
2023-05-01T03:37:13.150Z,13.63
2023-05-01T03:39:41.510Z,13.23
2023-05-01T03:42:10.509Z,13.40
2023-05-01T03:44:38.595Z,13.18
2023-05-01T03:47:06.782Z,13.22
2023-05-01T03:49:35.359Z,13.25
2023-05-01T03:52:02.732Z,13.15
2023-05-01T03:54:30.471Z,13.38
2023-05-01T03:56:58.582Z,13.22
2023-05-01T03:59:26.276Z,13.09
2023-05-01T04:01:54.000Z,12.83
2023-05-01T04:04:21.970Z,13.06
2023-05-01T04:06:50.666Z,13.06
2023-05-01T04:09:18.196Z,12.84
2023-05-01T04:11:47.213Z,12.79
2023-05-01T04:14:14.630Z,12.99
2023-05-01T04:16:42.115Z,13.00
2023-05-01T04:19:10.383Z,13.25
2023-05-01T04:21:39.829Z,13.41
2023-05-01T04:24:07.182Z,13.84
2023-05-01T04:26:34.880Z,13.90
2023-05-01T04:29:02.627Z,14.14
2023-05-01T04:31:30.068Z,14.82
2023-05-01T04:33:58.612Z,14.48
2023-05-01T04:36:26.018Z,14.38
2023-05-01T04:38:53.408Z,14.48
2023-05-01T04:41:21.787Z,14.56
2023-05-01T04:43:49.199Z,15.00
2023-05-01T04:46:17.318Z,14.95
2023-05-01T04:48:45.391Z,15.37
2023-05-01T04:51:12.782Z,15.81
2023-05-01T04:53:41.263Z,15.79
2023-05-01T04:56:11.892Z,15.66
2023-05-01T04:58:39.923Z,15.54
2023-05-01T05:01:07.658Z,15.81
2023-05-01T05:03:35.637Z,15.35
2023-05-01T05:06:03.686Z,15.57
2023-05-01T05:08:31.444Z,16.00
2023-05-01T05:11:00.052Z,15.75
2023-05-01T05:13:28.065Z,15.58
2023-05-01T05:15:56.068Z,15.52
2023-05-01T05:18:24.085Z,15.57
2023-05-01T05:20:51.691Z,15.48
2023-05-01T05:23:19.042Z,15.38
2023-05-01T05:25:46.659Z,15.77
2023-05-01T05:28:14.174Z,15.95
2023-05-01T05:30:41.949Z,15.45
2023-05-01T05:33:09.827Z,15.29
2023-05-01T05:35:37.309Z,15.73
2023-05-01T05:38:04.754Z,15.98
2023-05-01T05:40:33.367Z,16.06
2023-05-01T05:43:00.792Z,16.43
2023-05-01T05:45:29.238Z,15.90
2023-05-01T05:47:57.328Z,15.71
2023-05-01T05:50:25.960Z,15.43
2023-05-01T05:52:53.336Z,15.53
2023-05-01T05:55:20.991Z,15.27
2023-05-01T05:57:50.950Z,15.13
2023-05-01T06:00:18.983Z,15.39
2023-05-01T06:02:48.509Z,15.40
2023-05-01T06:05:16.533Z,15.53
2023-05-01T06:07:43.932Z,15.64
2023-05-01T06:10:11.678Z,15.33
2023-05-01T06:12:42.384Z,15.08
2023-05-01T06:15:24.789Z,14.89
2023-05-01T06:17:54.593Z,14.57
2023-05-01T06:20:22.463Z,15.05
2023-05-01T06:22:50.169Z,14.94
2023-05-01T06:25:17.792Z,14.63
2023-05-01T06:27:45.633Z,14.85
2023-05-01T06:30:13.283Z,15.06
2023-05-01T06:32:43.565Z,14.83
2023-05-01T06:35:11.654Z,15.00
2023-05-01T06:37:39.181Z,14.86
2023-05-01T06:40:08.202Z,15.37
2023-05-01T06:42:37.009Z,15.18
2023-05-01T06:45:05.433Z,15.42
2023-05-01T06:47:33.056Z,15.54
2023-05-01T06:50:03.599Z,15.62
2023-05-01T06:52:33.935Z,15.64
2023-05-01T06:55:01.667Z,15.41
2023-05-01T06:57:29.043Z,15.55
2023-05-01T06:59:56.787Z,15.68
2023-05-01T07:02:24.881Z,15.84
2023-05-01T07:04:53.105Z,16.04
2023-05-01T07:07:20.512Z,16.71
2023-05-01T07:09:48.234Z,17.05
2023-05-01T07:12:15.645Z,17.11
2023-05-01T07:14:43.174Z,17.30
2023-05-01T07:17:10.863Z,16.99
2023-05-01T07:19:38.819Z,16.89
2023-05-01T07:22:06.300Z,17.06
2023-05-01T07:24:34.020Z,17.00
2023-05-01T07:27:01.503Z,17.32
2023-05-01T07:29:28.881Z,16.69
2023-05-01T07:31:56.625Z,16.93
2023-05-01T07:34:24.134Z,17.48
2023-05-01T07:36:51.529Z,17.41
2023-05-01T07:39:20.192Z,17.27
2023-05-01T07:41:47.662Z,17.28
2023-05-01T07:44:15.065Z,17.03
2023-05-01T07:46:43.153Z,17.25
2023-05-01T07:49:10.539Z,17.34
2023-05-01T07:51:37.916Z,17.31
2023-05-01T07:54:05.755Z,17.43
2023-05-01T07:56:33.396Z,17.89
2023-05-01T07:59:00.736Z,17.70
2023-05-01T08:01:28.433Z,17.48
2023-05-01T08:03:56.179Z,17.48
2023-05-01T08:06:23.688Z,17.13
2023-05-01T08:08:51.388Z,17.79
2023-05-01T08:11:19.023Z,17.58
2023-05-01T08:13:46.402Z,18.03
2023-05-01T08:16:13.817Z,18.34
2023-05-01T08:18:41.527Z,18.31
2023-05-01T08:21:08.924Z,17.66
2023-05-01T08:23:36.269Z,18.04
2023-05-01T08:26:03.977Z,18.22
2023-05-01T08:28:34.580Z,18.44
2023-05-01T08:31:02.393Z,18.68
2023-05-01T08:33:30.113Z,18.62
2023-05-01T08:35:58.213Z,18.36
2023-05-01T08:38:25.609Z,18.42
2023-05-01T08:40:54.059Z,18.53
2023-05-01T08:43:21.546Z,19.31
2023-05-01T08:45:49.814Z,19.38
2023-05-01T08:48:20.681Z,19.06
2023-05-01T08:50:48.533Z,19.24
2023-05-01T08:53:17.575Z,19.34
2023-05-01T08:55:48.596Z,19.48
2023-05-01T08:58:17.641Z,19.41
2023-05-01T09:00:46.637Z,19.37
2023-05-01T09:03:14.396Z,19.47
2023-05-01T09:05:41.987Z,19.53
2023-05-01T09:08:09.720Z,19.44
2023-05-01T09:10:43.016Z,19.13
2023-05-01T09:13:10.734Z,19.40
2023-05-01T09:15:38.473Z,19.52
2023-05-01T09:18:06.024Z,19.26
2023-05-01T09:20:37.439Z,18.90
2023-05-01T09:23:04.869Z,19.11
2023-05-01T09:25:32.262Z,19.29
2023-05-01T09:27:59.954Z,19.61
2023-05-01T09:30:35.104Z,18.91
2023-05-01T09:33:13.010Z,19.02
2023-05-01T09:35:58.595Z,19.41
2023-05-01T09:38:27.836Z,19.49
2023-05-01T09:40:57.255Z,19.68
2023-05-01T09:43:28.838Z,19.76
2023-05-01T09:46:05.031Z,20.29
2023-05-01T09:48:34.946Z,20.24
2023-05-01T09:51:22.303Z,19.83
2023-05-01T09:53:50.221Z,19.80
2023-05-01T09:56:18.587Z,20.14
2023-05-01T09:58:46.620Z,20.18
2023-05-01T10:01:15.212Z,19.86
2023-05-01T10:03:44.907Z,20.31
2023-05-01T10:06:12.465Z,20.41
2023-05-01T10:08:47.850Z,20.51
2023-05-01T10:11:15.579Z,21.05
2023-05-01T10:13:42.930Z,21.22
2023-05-01T10:16:29.388Z,21.26
2023-05-01T10:18:58.234Z,21.49
2023-05-01T10:21:25.990Z,21.47
2023-05-01T10:23:55.096Z,21.67
2023-05-01T10:26:22.857Z,21.25
2023-05-01T10:28:50.267Z,21.11
2023-05-01T10:31:17.713Z,21.00
2023-05-01T10:33:46.668Z,20.93
2023-05-01T10:36:46.296Z,21.64
2023-05-01T10:39:33.628Z,21.21
2023-05-01T10:42:16.651Z,21.60
2023-05-01T10:44:46.281Z,21.70
2023-05-01T10:47:27.811Z,21.25
2023-05-01T10:50:09.154Z,20.80
2023-05-01T10:53:14.644Z,21.76
2023-05-01T10:55:46.218Z,21.33
2023-05-01T10:58:33.392Z,21.30
2023-05-01T11:01:33.518Z,22.08
2023-05-01T11:04:04.246Z,22.33
2023-05-01T11:06:32.307Z,21.96
2023-05-01T11:09:01.007Z,21.84
2023-05-01T11:11:28.256Z,22.06
2023-05-01T11:14:02.344Z,22.38
2023-05-01T11:16:39.444Z,22.31
2023-05-01T11:19:12.298Z,22.61
2023-05-01T11:21:41.918Z,22.39
2023-05-01T11:24:09.720Z,22.36
2023-05-01T11:26:42.221Z,22.09
2023-05-01T11:29:11.532Z,21.78
2023-05-01T11:31:39.535Z,22.44
2023-05-01T11:34:07.239Z,22.36
2023-05-01T11:36:51.133Z,22.55
2023-05-01T11:39:19.602Z,22.26
2023-05-01T11:41:47.796Z,22.04
2023-05-01T11:44:16.851Z,22.17
2023-05-01T11:46:44.391Z,22.33
2023-05-01T11:49:12.136Z,22.50
2023-05-01T11:51:39.574Z,22.51
2023-05-01T11:54:09.508Z,22.81
2023-05-01T11:56:37.865Z,22.33
2023-05-01T11:59:20.223Z,23.04
2023-05-01T12:01:47.888Z,22.92
2023-05-01T12:04:24.378Z,23.30
2023-05-01T12:06:51.946Z,23.71
2023-05-01T12:09:21.827Z,23.05
2023-05-01T12:11:52.566Z,23.29
2023-05-01T12:14:24.476Z,22.86
2023-05-01T12:16:52.016Z,22.97
2023-05-01T12:19:20.990Z,23.10
2023-05-01T12:21:49.357Z,23.45
2023-05-01T12:24:18.901Z,23.25
2023-05-01T12:26:46.463Z,23.08
2023-05-01T12:29:14.213Z,22.74
2023-05-01T12:31:49.353Z,23.10
2023-05-01T12:34:17.120Z,22.57
2023-05-01T12:36:53.914Z,22.66
2023-05-01T12:39:23.491Z,22.79
2023-05-01T12:41:51.483Z,22.43
2023-05-01T12:44:30.751Z,22.02
2023-05-01T12:47:09.851Z,22.09
2023-05-01T12:49:37.881Z,21.91
2023-05-01T12:52:07.754Z,22.04
2023-05-01T12:54:39.720Z,22.62
2023-05-01T12:57:08.046Z,23.13
2023-05-01T12:59:37.230Z,22.68
2023-05-01T13:02:15.959Z,22.84
2023-05-01T13:04:44.315Z,22.82
2023-05-01T13:07:16.576Z,22.27
2023-05-01T13:09:55.952Z,22.46
2023-05-01T13:12:24.345Z,22.32
2023-05-01T13:14:52.630Z,22.49
2023-05-01T13:17:30.106Z,21.94
2023-05-01T13:20:02.442Z,22.29
2023-05-01T13:22:34.050Z,22.97
2023-05-01T13:25:03.872Z,22.34
2023-05-01T13:27:31.705Z,22.70
2023-05-01T13:29:59.895Z,22.51
2023-05-01T13:32:28.290Z,22.32
2023-05-01T13:34:56.384Z,22.55
2023-05-01T13:37:23.800Z,22.51
2023-05-01T13:39:58.162Z,22.54
2023-05-01T13:42:25.862Z,23.05
2023-05-01T13:44:56.036Z,22.62
2023-05-01T13:47:26.521Z,22.76
2023-05-01T13:49:54.619Z,22.80
2023-05-01T13:52:21.996Z,22.45
2023-05-01T13:54:49.365Z,22.88
2023-05-01T13:57:17.393Z,23.15
2023-05-01T13:59:46.797Z,23.58
2023-05-01T14:02:28.393Z,23.41
2023-05-01T14:04:58.321Z,22.90
2023-05-01T14:07:27.587Z,23.00
2023-05-01T14:09:56.701Z,23.57
2023-05-01T14:12:32.042Z,22.91
2023-05-01T14:15:01.279Z,22.89
2023-05-01T14:17:35.697Z,22.68
2023-05-01T14:20:05.462Z,22.92
2023-05-01T14:22:44.564Z,22.54
2023-05-01T14:25:29.786Z,22.61
2023-05-01T14:27:59.565Z,22.60
2023-05-01T14:30:29.989Z,22.51
2023-05-01T14:32:57.795Z,22.86
2023-05-01T14:35:25.448Z,22.52
2023-05-01T14:37:52.838Z,22.81
2023-05-01T14:40:26.476Z,23.05
2023-05-01T14:42:55.172Z,22.85
2023-05-01T14:45:22.825Z,22.76
2023-05-01T14:47:50.448Z,22.72
2023-05-01T14:50:22.332Z,22.57
2023-05-01T14:52:57.950Z,22.49
2023-05-01T14:55:34.753Z,22.77
2023-05-01T14:58:02.557Z,22.46
2023-05-01T15:00:29.950Z,22.61
2023-05-01T15:02:58.786Z,22.87
2023-05-01T15:05:28.263Z,22.87
2023-05-01T15:08:00.512Z,22.94
2023-05-01T15:10:28.942Z,22.97
2023-05-01T15:12:56.383Z,22.74
2023-05-01T15:15:24.059Z,21.99
2023-05-01T15:17:51.829Z,22.38
2023-05-01T15:20:19.662Z,22.58
2023-05-01T15:22:47.110Z,22.41
2023-05-01T15:25:16.359Z,22.40
2023-05-01T15:27:45.745Z,22.46
2023-05-01T15:30:14.986Z,22.51
2023-05-01T15:32:42.936Z,21.76
2023-05-01T15:35:10.512Z,21.61
2023-05-01T15:37:37.891Z,21.79
2023-05-01T15:40:06.641Z,21.82
2023-05-01T15:42:34.063Z,21.79
2023-05-01T15:45:03.428Z,21.87
2023-05-01T15:47:31.873Z,21.70
2023-05-01T15:49:59.545Z,21.64
2023-05-01T15:52:27.157Z,21.77
2023-05-01T15:54:56.335Z,21.52
2023-05-01T15:57:23.822Z,21.55
2023-05-01T15:59:53.953Z,21.23
2023-05-01T16:02:22.637Z,21.34
2023-05-01T16:04:52.025Z,20.98
2023-05-01T16:07:21.501Z,20.97
2023-05-01T16:09:49.220Z,21.28
2023-05-01T16:12:16.921Z,21.20
2023-05-01T16:14:44.452Z,21.09
2023-05-01T16:17:11.890Z,21.26
2023-05-01T16:19:39.703Z,21.30
2023-05-01T16:22:07.882Z,21.18
2023-05-01T16:24:36.484Z,20.89
2023-05-01T16:27:04.475Z,20.69
2023-05-01T16:29:35.039Z,20.79
2023-05-01T16:32:04.689Z,20.57
2023-05-01T16:34:32.746Z,20.71
2023-05-01T16:37:00.164Z,20.61
2023-05-01T16:39:28.133Z,20.90
2023-05-01T16:41:55.927Z,20.63
2023-05-01T16:44:25.159Z,20.91
2023-05-01T16:46:57.454Z,20.78
2023-05-01T16:49:29.749Z,20.71
2023-05-01T16:51:58.544Z,20.94
2023-05-01T16:54:32.054Z,20.68
2023-05-01T16:56:59.804Z,20.40
2023-05-01T16:59:30.578Z,20.37
2023-05-01T17:01:58.125Z,20.29
2023-05-01T17:04:26.050Z,20.54
2023-05-01T17:06:56.041Z,20.50
2023-05-01T17:12:17.374Z,20.22
2023-05-01T17:14:44.886Z,20.08
2023-05-01T17:17:12.331Z,19.88
2023-05-01T17:19:40.244Z,19.90
2023-05-01T17:22:07.819Z,20.16
2023-05-01T17:24:36.379Z,20.04
2023-05-01T17:27:04.143Z,20.14
2023-05-01T17:29:32.336Z,20.03
2023-05-01T17:31:59.836Z,20.22
2023-05-01T17:34:27.514Z,20.05
2023-05-01T17:36:57.269Z,19.95
2023-05-01T17:39:27.507Z,19.62
2023-05-01T17:41:55.519Z,19.72
2023-05-01T17:44:22.990Z,19.62
2023-05-01T17:46:50.662Z,19.70
2023-05-01T17:49:18.786Z,19.99
2023-05-01T17:51:46.169Z,19.91
2023-05-01T17:54:15.317Z,19.42
2023-05-01T17:56:44.039Z,19.85
2023-05-01T17:59:11.485Z,19.52
2023-05-01T18:01:39.107Z,19.80
2023-05-01T18:04:08.795Z,19.95
2023-05-01T18:06:36.706Z,20.16
2023-05-01T18:09:07.128Z,19.95
2023-05-01T18:11:36.078Z,19.48
2023-05-01T18:14:04.287Z,19.61
2023-05-01T18:16:31.749Z,19.33
2023-05-01T18:18:59.408Z,19.78
2023-05-01T18:21:27.609Z,19.42
2023-05-01T18:23:56.243Z,19.38
2023-05-01T18:26:27.074Z,19.18
2023-05-01T18:28:54.898Z,19.01
2023-05-01T18:31:24.287Z,18.94
2023-05-01T18:33:53.159Z,19.13
2023-05-01T18:36:21.248Z,19.03
2023-05-01T18:38:49.080Z,19.01
2023-05-01T18:41:17.107Z,19.05
2023-05-01T18:43:45.113Z,19.04
2023-05-01T18:46:13.676Z,19.36
2023-05-01T18:48:42.981Z,19.27
2023-05-01T18:51:11.468Z,19.17
2023-05-01T18:53:39.633Z,19.07
2023-05-01T18:56:09.912Z,19.14
2023-05-01T18:58:37.908Z,19.13
2023-05-01T19:01:07.113Z,18.86
2023-05-01T19:03:40.051Z,18.99
2023-05-01T19:06:11.196Z,18.94
2023-05-01T19:08:39.498Z,18.57
2023-05-01T19:11:08.004Z,18.56
2023-05-01T19:13:36.052Z,18.72
2023-05-01T19:16:04.961Z,18.56
2023-05-01T19:18:33.950Z,18.79
2023-05-01T19:21:03.495Z,18.68
2023-05-01T19:23:35.356Z,18.55
2023-05-01T19:26:07.564Z,18.37
2023-05-01T19:28:37.202Z,18.47
2023-05-01T19:31:08.747Z,18.45
2023-05-01T19:33:41.587Z,18.59
2023-05-01T19:36:09.848Z,18.72
2023-05-01T19:38:38.255Z,18.33
2023-05-01T19:41:07.096Z,18.61
2023-05-01T19:43:35.166Z,18.44
2023-05-01T19:46:04.924Z,18.81
2023-05-01T19:48:33.509Z,19.00
2023-05-01T19:51:01.713Z,19.09
2023-05-01T19:53:31.563Z,19.12
2023-05-01T19:56:02.622Z,18.89
2023-05-01T19:58:31.061Z,18.90
2023-05-01T20:01:02.567Z,18.61
2023-05-01T20:03:30.927Z,18.66
2023-05-01T20:05:59.837Z,18.48
2023-05-01T20:08:27.645Z,18.45
2023-05-01T20:10:57.815Z,18.26
2023-05-01T20:13:25.298Z,18.19
2023-05-01T20:15:52.699Z,18.10
2023-05-01T20:18:21.253Z,18.01
2023-05-01T20:20:49.115Z,18.09
2023-05-01T20:23:17.967Z,17.86
2023-05-01T20:25:49.343Z,17.85
2023-05-01T20:28:17.734Z,17.68
2023-05-01T20:30:46.275Z,17.71
2023-05-01T20:33:15.069Z,17.66
2023-05-01T20:35:43.195Z,17.64
2023-05-01T20:38:11.201Z,17.31
2023-05-01T20:40:40.426Z,17.14
2023-05-01T20:43:08.526Z,17.19
2023-05-01T20:45:36.170Z,17.30
2023-05-01T20:48:04.001Z,17.45
2023-05-01T20:50:31.808Z,17.36
2023-05-01T20:52:59.245Z,17.45
2023-05-01T20:55:28.098Z,17.59
2023-05-01T20:57:55.872Z,17.57
2023-05-01T21:00:23.244Z,17.70
2023-05-01T21:02:52.810Z,17.65
2023-05-01T21:05:20.394Z,17.51
2023-05-01T21:07:48.380Z,17.54
2023-05-01T21:10:16.653Z,17.65
2023-05-01T21:12:44.153Z,17.45
2023-05-01T21:15:12.780Z,17.56
2023-05-01T21:17:41.067Z,17.21
2023-05-01T21:20:19.108Z,17.27
2023-05-01T21:22:48.469Z,17.51
2023-05-01T21:25:24.422Z,17.21
2023-05-01T21:27:52.198Z,17.19
2023-05-01T21:30:37.849Z,17.05
2023-05-01T21:33:07.462Z,17.23
2023-05-01T21:35:34.912Z,16.83
2023-05-01T21:38:04.251Z,17.16
2023-05-01T21:40:36.373Z,17.11
2023-05-01T21:43:05.637Z,16.79
2023-05-01T21:45:36.649Z,16.80
2023-05-01T21:48:05.531Z,17.07
2023-05-01T21:50:36.016Z,16.83
2023-05-01T21:53:03.432Z,16.54
2023-05-01T21:55:31.521Z,16.44
2023-05-01T21:57:59.284Z,16.77
2023-05-01T22:00:27.744Z,16.64
2023-05-01T22:02:56.471Z,16.53
2023-05-01T22:05:24.094Z,16.95
2023-05-01T22:07:52.348Z,17.06
2023-05-01T22:10:20.442Z,17.02
2023-05-01T22:12:49.355Z,17.10
2023-05-01T22:15:16.844Z,16.66
2023-05-01T22:17:45.342Z,16.65
2023-05-01T22:20:12.976Z,16.83
2023-05-01T22:22:41.503Z,16.99
2023-05-01T22:25:10.134Z,16.86
2023-05-01T22:27:37.904Z,16.83
2023-05-01T22:30:05.804Z,16.89
2023-05-01T22:32:33.931Z,16.95
2023-05-01T22:35:01.507Z,17.04
2023-05-01T22:37:29.907Z,16.94
2023-05-01T22:39:58.012Z,17.05
2023-05-01T22:42:25.757Z,16.88
2023-05-01T22:44:53.148Z,16.85
2023-05-01T22:47:20.797Z,16.93
2023-05-01T22:49:48.218Z,16.79
2023-05-01T22:52:15.593Z,16.80
2023-05-01T22:54:43.226Z,16.88
2023-05-01T22:57:10.580Z,16.90
2023-05-01T22:59:39.596Z,16.89
2023-05-01T23:02:07.298Z,17.17
2023-05-01T23:04:34.705Z,16.67
2023-05-01T23:07:02.223Z,16.76
2023-05-01T23:09:30.653Z,16.51
2023-05-01T23:11:58.035Z,16.50
2023-05-01T23:14:25.838Z,16.32
2023-05-01T23:16:53.590Z,16.53
2023-05-01T23:19:22.962Z,16.34
2023-05-01T23:21:51.622Z,16.53
2023-05-01T23:24:49.676Z,16.28
2023-05-01T23:27:18.729Z,16.34
2023-05-01T23:29:54.611Z,16.27
2023-05-01T23:32:31.255Z,16.26
2023-05-01T23:35:12.925Z,16.31
2023-05-01T23:37:40.296Z,16.15
2023-05-01T23:40:09.454Z,16.45
2023-05-01T23:42:38.222Z,16.49
2023-05-01T23:45:07.694Z,16.33
2023-05-01T23:47:35.777Z,16.49
2023-05-01T23:50:03.562Z,16.44
2023-05-01T23:52:31.028Z,16.28
2023-05-01T23:54:58.724Z,16.23
2023-05-01T23:57:26.154Z,16.33
2023-05-01T23:59:53.710Z,16.47
